createdAt,value
2023-03-13T00:00:06.233Z,14934
2023-03-13T00:01:34.674Z,14913
2023-03-13T00:03:03.719Z,14913
2023-03-13T00:04:32.377Z,14870
2023-03-13T00:06:00.749Z,14849
2023-03-13T00:07:29.663Z,14881
2023-03-13T00:08:49.466Z,14934
2023-03-13T00:10:17.403Z,14923
2023-03-13T00:11:46.266Z,14870
2023-03-13T00:13:14.687Z,14828
2023-03-13T00:14:44.041Z,14828
2023-03-13T00:16:13.202Z,14828
2023-03-13T00:17:41.855Z,14828
2023-03-13T00:19:10.204Z,14818
2023-03-13T00:20:39.267Z,14849
2023-03-13T00:22:07.666Z,14797
2023-03-13T00:23:36.664Z,14766
2023-03-13T00:25:05.085Z,14755
2023-03-13T00:26:34.414Z,14786
2023-03-13T00:28:02.560Z,14755
2023-03-13T00:29:30.997Z,14776
2023-03-13T00:31:00.932Z,14776
2023-03-13T00:32:30.678Z,14734
2023-03-13T00:33:59.003Z,14734
2023-03-13T00:35:27.924Z,14734
2023-03-13T00:36:56.425Z,14714
2023-03-13T00:38:25.746Z,14734
2023-03-13T00:39:54.338Z,14714
2023-03-13T00:41:23.065Z,14724
2023-03-13T00:42:51.567Z,14693
2023-03-13T00:44:21.217Z,14734
2023-03-13T00:45:49.146Z,14703
2023-03-13T00:47:18.260Z,14703
2023-03-13T00:48:46.530Z,14703
2023-03-13T00:50:14.818Z,14672
2023-03-13T00:51:43.540Z,14703
2023-03-13T00:53:11.660Z,14703
2023-03-13T00:54:40.558Z,14714
2023-03-13T00:56:09.077Z,14683
2023-03-13T00:57:38.245Z,14703
2023-03-13T00:59:06.558Z,14703
2023-03-13T01:00:34.698Z,14683
2023-03-13T01:02:03.388Z,14683
2023-03-13T01:03:32.043Z,14662
2023-03-13T01:05:00.939Z,14693
2023-03-13T01:06:29.261Z,14683
2023-03-13T01:07:57.326Z,14693
2023-03-13T01:09:26.348Z,14652
2023-03-13T01:10:54.883Z,14714
2023-03-13T01:12:23.449Z,14683
2023-03-13T01:13:51.792Z,14693
2023-03-13T01:15:20.635Z,14683
2023-03-13T01:16:49.088Z,14683
2023-03-13T01:18:17.605Z,14672
2023-03-13T01:19:46.485Z,14693
2023-03-13T01:21:14.246Z,14683
2023-03-13T01:22:16.542Z,14703
2023-03-13T01:23:44.445Z,14672
2023-03-13T01:25:12.548Z,14652
2023-03-13T01:26:41.621Z,14672
2023-03-13T01:28:10.146Z,14672
2023-03-13T01:29:39.349Z,14693
2023-03-13T01:31:07.536Z,14662
2023-03-13T01:32:36.017Z,14683
2023-03-13T01:34:04.365Z,14714
2023-03-13T01:35:43.775Z,14776
2023-03-13T01:37:11.722Z,14693
2023-03-13T01:38:39.839Z,14693
2023-03-13T01:40:08.676Z,14693
2023-03-13T01:41:37.398Z,14683
2023-03-13T01:43:27.556Z,14683
2023-03-13T01:44:34.472Z,14693
2023-03-13T01:46:03.599Z,14703
2023-03-13T01:47:31.714Z,14703
2023-03-13T01:49:01.058Z,14703
2023-03-13T01:50:29.497Z,14724
2023-03-13T01:51:57.738Z,14714
2023-03-13T01:53:26.076Z,14714
2023-03-13T01:54:54.577Z,14703
2023-03-13T01:56:23.777Z,14734
2023-03-13T01:57:51.617Z,14734
2023-03-13T01:59:20.998Z,14745
2023-03-13T02:00:49.436Z,14766
2023-03-13T02:02:18.367Z,14745
2023-03-13T02:03:47.098Z,14734
2023-03-13T02:05:16.558Z,14734
2023-03-13T02:06:44.853Z,14734
2023-03-13T02:08:13.800Z,14755
2023-03-13T02:09:42.099Z,14745
2023-03-13T02:11:10.156Z,14766
2023-03-13T02:12:38.717Z,14755
2023-03-13T02:14:07.264Z,14755
2023-03-13T02:15:36.575Z,14786
2023-03-13T02:17:04.878Z,14755
2023-03-13T02:18:33.238Z,14755
2023-03-13T02:20:02.317Z,14766
2023-03-13T02:21:31.317Z,14776
2023-03-13T02:22:59.674Z,14776
2023-03-13T02:24:27.908Z,14776
2023-03-13T02:25:57.353Z,14766
2023-03-13T02:27:25.884Z,14755
2023-03-13T02:28:54.724Z,14786
2023-03-13T02:30:22.945Z,14786
2023-03-13T02:31:52.061Z,14734
2023-03-13T02:33:20.324Z,14766
2023-03-13T02:34:49.491Z,14755
2023-03-13T02:36:17.885Z,14734
2023-03-13T02:37:45.882Z,14776
2023-03-13T02:39:14.359Z,14724
2023-03-13T02:40:33.823Z,14797
2023-03-13T02:42:02.502Z,14755
2023-03-13T02:43:30.376Z,14734
2023-03-13T02:44:59.155Z,14766
2023-03-13T02:46:28.242Z,14724
2023-03-13T02:47:58.146Z,14714
2023-03-13T02:49:25.074Z,14703
2023-03-13T02:50:53.916Z,14703
2023-03-13T02:52:23.001Z,14703
2023-03-13T02:53:52.638Z,14693
2023-03-13T02:55:20.523Z,14714
2023-03-13T02:56:49.173Z,14683
2023-03-13T02:58:18.442Z,14703
2023-03-13T02:59:48.361Z,14683
2023-03-13T03:01:17.328Z,14693
2023-03-13T03:02:45.023Z,14672
2023-03-13T03:04:14.016Z,14662
2023-03-13T03:05:41.842Z,14662
2023-03-13T03:07:11.090Z,14631
2023-03-13T03:08:40.854Z,14652
2023-03-13T03:10:07.373Z,14652
2023-03-13T03:11:38.394Z,14642
2023-03-13T03:13:05.879Z,14611
2023-03-13T03:14:33.982Z,14631
2023-03-13T03:16:03.190Z,14652
2023-03-13T03:17:32.360Z,14631
2023-03-13T03:18:41.403Z,14642
2023-03-13T03:20:10.157Z,14621
2023-03-13T03:21:38.309Z,14601
2023-03-13T03:23:07.642Z,14631
2023-03-13T03:24:36.130Z,14611
2023-03-13T03:26:04.472Z,14591
2023-03-13T03:27:32.950Z,14591
2023-03-13T03:29:01.250Z,14580
2023-03-13T03:30:30.366Z,14601
2023-03-13T03:31:59.085Z,14591
2023-03-13T03:33:27.245Z,14580
2023-03-13T03:34:36.385Z,14621
2023-03-13T03:36:05.535Z,14591
2023-03-13T03:37:33.303Z,14591
2023-03-13T03:39:01.980Z,14560
2023-03-13T03:40:30.350Z,14560
2023-03-13T03:41:59.244Z,14580
2023-03-13T03:43:28.104Z,14591
2023-03-13T03:44:56.265Z,14540
2023-03-13T03:46:25.214Z,14540
2023-03-13T03:47:53.653Z,14570
2023-03-13T03:49:23.068Z,14591
2023-03-13T03:50:51.469Z,14591
2023-03-13T03:52:19.510Z,14580
2023-03-13T03:53:48.853Z,14580
2023-03-13T03:55:18.238Z,14611
2023-03-13T03:56:46.790Z,14570
2023-03-13T03:58:14.848Z,14591
2023-03-13T03:59:43.148Z,14580
2023-03-13T04:01:11.875Z,14601
2023-03-13T04:02:41.166Z,14601
2023-03-13T04:04:09.390Z,14580
2023-03-13T04:05:37.250Z,14601
2023-03-13T04:07:06.251Z,14601
2023-03-13T04:08:35.129Z,14580
2023-03-13T04:10:04.149Z,14570
2023-03-13T04:11:32.199Z,14601
2023-03-13T04:13:00.759Z,14601
2023-03-13T04:14:29.337Z,14601
2023-03-13T04:15:57.881Z,14601
2023-03-13T04:17:26.819Z,14601
2023-03-13T04:18:54.747Z,14580
2023-03-13T04:20:23.930Z,14591
2023-03-13T04:21:52.600Z,14621
2023-03-13T04:23:21.942Z,14652
2023-03-13T04:24:50.160Z,14591
2023-03-13T04:26:18.879Z,14601
2023-03-13T04:27:48.466Z,14601
2023-03-13T04:29:17.897Z,14601
2023-03-13T04:30:46.598Z,14642
2023-03-13T04:32:15.117Z,14611
2023-03-13T04:33:43.326Z,14621
2023-03-13T04:35:12.202Z,14611
2023-03-13T04:36:40.260Z,14601
2023-03-13T04:38:08.423Z,14652
2023-03-13T04:39:36.897Z,14642
2023-03-13T04:41:05.353Z,14621
2023-03-13T04:42:34.476Z,14611
2023-03-13T04:44:03.038Z,14621
2023-03-13T04:45:31.135Z,14621
2023-03-13T04:46:59.751Z,14631
2023-03-13T04:48:28.037Z,14631
2023-03-13T04:49:57.590Z,14652
2023-03-13T04:51:25.678Z,14642
2023-03-13T04:52:54.513Z,14642
2023-03-13T04:54:23.053Z,14652
2023-03-13T04:55:52.108Z,14642
2023-03-13T04:57:20.578Z,14621
2023-03-13T04:58:48.261Z,14642
2023-03-13T05:00:16.983Z,14662
2023-03-13T05:01:46.007Z,14662
2023-03-13T05:03:14.793Z,14683
2023-03-13T05:04:43.345Z,14683
2023-03-13T05:06:11.693Z,14683
2023-03-13T05:07:40.148Z,14662
2023-03-13T05:09:09.466Z,14693
2023-03-13T05:10:38.046Z,14703
2023-03-13T05:12:06.166Z,14724
2023-03-13T05:13:34.746Z,14683
2023-03-13T05:15:03.634Z,14745
2023-03-13T05:16:32.458Z,14734
2023-03-13T05:18:00.717Z,14724
2023-03-13T05:19:29.546Z,14724
2023-03-13T05:20:57.816Z,14755
2023-03-13T05:22:26.743Z,14786
2023-03-13T05:23:55.288Z,14786
2023-03-13T05:25:23.309Z,14776
2023-03-13T05:26:52.049Z,14797
2023-03-13T05:28:20.603Z,14807
2023-03-13T05:29:49.483Z,14828
2023-03-13T05:31:18.291Z,14828
2023-03-13T05:32:47.429Z,14828
2023-03-13T05:34:15.532Z,14881
2023-03-13T05:35:45.145Z,14902
2023-03-13T05:37:12.929Z,14892
2023-03-13T05:38:41.126Z,14892
2023-03-13T05:40:10.149Z,14913
2023-03-13T05:41:39.691Z,14934
2023-03-13T05:43:08.070Z,14913
2023-03-13T05:44:36.819Z,14934
2023-03-13T05:46:05.926Z,14934
2023-03-13T05:47:35.166Z,14966
2023-03-13T05:49:03.512Z,14945
2023-03-13T05:50:32.357Z,14987
2023-03-13T05:52:01.207Z,14966
2023-03-13T05:53:29.885Z,14977
2023-03-13T05:54:58.405Z,14977
2023-03-13T05:56:26.548Z,14987
2023-03-13T05:57:55.505Z,15009
2023-03-13T05:59:24.024Z,14998
2023-03-13T06:00:52.783Z,14987
2023-03-13T06:02:20.943Z,15020
2023-03-13T06:03:50.394Z,15031
2023-03-13T06:05:18.683Z,15041
2023-03-13T06:06:47.527Z,15041
2023-03-13T06:08:16.210Z,15052
2023-03-13T06:09:44.040Z,15052
2023-03-13T06:11:12.732Z,15063
2023-03-13T06:12:41.197Z,15041
2023-03-13T06:14:10.607Z,15074
2023-03-13T06:15:38.912Z,15074
2023-03-13T06:17:07.037Z,15063
2023-03-13T06:18:35.659Z,15074
2023-03-13T06:20:04.481Z,15096
2023-03-13T06:21:33.349Z,15117
2023-03-13T06:23:01.652Z,15128
2023-03-13T06:24:30.254Z,15139
2023-03-13T06:25:58.802Z,15139
2023-03-13T06:27:28.009Z,15161
2023-03-13T06:28:56.348Z,15183
2023-03-13T06:30:24.436Z,15216
2023-03-13T06:31:53.681Z,15194
2023-03-13T06:33:22.090Z,15238
2023-03-13T06:34:50.810Z,15249
2023-03-13T06:36:19.374Z,15272
2023-03-13T06:37:47.678Z,15283
2023-03-13T06:39:16.791Z,15283
2023-03-13T06:40:48.772Z,15328
2023-03-13T06:42:14.161Z,15339
2023-03-13T06:43:42.854Z,15373
2023-03-13T06:45:12.038Z,15395
2023-03-13T06:46:41.641Z,15429
2023-03-13T06:48:09.657Z,15441
2023-03-13T06:49:38.632Z,15486
2023-03-13T06:51:07.865Z,15521
2023-03-13T06:52:45.068Z,15590
2023-03-13T06:54:05.191Z,15602
2023-03-13T06:55:33.404Z,15660
2023-03-13T06:57:02.301Z,15695
2023-03-13T06:58:33.725Z,15754
2023-03-13T06:59:59.942Z,15826
2023-03-13T07:01:28.410Z,15850
2023-03-13T07:02:56.538Z,15850
2023-03-13T07:04:25.688Z,15886
2023-03-13T07:05:54.527Z,15946
2023-03-13T07:07:32.866Z,16020
2023-03-13T07:08:51.273Z,16044
2023-03-13T07:10:19.649Z,16093
2023-03-13T07:11:48.228Z,16118
2023-03-13T07:13:17.290Z,16155
2023-03-13T07:14:45.468Z,16231
2023-03-13T07:16:14.786Z,16256
2023-03-13T07:17:43.632Z,16294
2023-03-13T07:19:12.315Z,16319
2023-03-13T07:20:40.993Z,16357
2023-03-13T07:22:09.501Z,16383
2023-03-13T07:23:38.175Z,16422
2023-03-13T07:25:07.639Z,16422
2023-03-13T07:26:36.556Z,16422
2023-03-13T07:28:04.140Z,16434
2023-03-13T07:29:32.780Z,16486
2023-03-13T07:31:01.059Z,16486
2023-03-13T07:32:30.639Z,16499
2023-03-13T07:33:58.499Z,16538
2023-03-13T07:35:27.301Z,16578
2023-03-13T07:36:55.979Z,16604
2023-03-13T07:38:25.898Z,16604
2023-03-13T07:39:54.426Z,16617
2023-03-13T07:41:22.984Z,16643
2023-03-13T07:42:52.002Z,16643
2023-03-13T07:44:21.220Z,16643
2023-03-13T07:45:50.138Z,16683
2023-03-13T07:47:18.018Z,16723
2023-03-13T07:48:46.460Z,16697
2023-03-13T07:50:15.545Z,16710
2023-03-13T07:51:45.342Z,16697
2023-03-13T07:53:16.918Z,16710
2023-03-13T07:54:40.617Z,16723
2023-03-13T07:56:10.058Z,16750
2023-03-13T07:57:38.902Z,16777
2023-03-13T07:59:08.489Z,16750
2023-03-13T08:00:36.422Z,16750
2023-03-13T08:02:05.952Z,16763
2023-03-13T08:03:34.344Z,16790
2023-03-13T08:05:02.619Z,16831
2023-03-13T08:06:34.907Z,16831
2023-03-13T08:07:59.177Z,16817
2023-03-13T08:09:27.662Z,16804
2023-03-13T08:10:57.097Z,16858
2023-03-13T08:12:25.558Z,16804
2023-03-13T08:13:54.265Z,16817
2023-03-13T08:15:23.499Z,16831
2023-03-13T08:16:53.213Z,16831
2023-03-13T08:18:21.341Z,16777
2023-03-13T08:19:49.852Z,16790
2023-03-13T08:21:18.864Z,16763
2023-03-13T08:22:48.373Z,16737
2023-03-13T08:24:16.822Z,16737
2023-03-13T08:25:45.145Z,16697
2023-03-13T08:27:13.821Z,16710
2023-03-13T08:28:42.332Z,16683
2023-03-13T08:30:11.180Z,16683
2023-03-13T08:31:39.742Z,16643
2023-03-13T08:33:09.092Z,16657
2023-03-13T08:34:36.622Z,16630
2023-03-13T08:36:05.869Z,16604
2023-03-13T08:37:14.586Z,16697
2023-03-13T08:38:47.300Z,16604
2023-03-13T08:40:12.578Z,16591
2023-03-13T08:41:41.458Z,16604
2023-03-13T08:43:09.614Z,16551
2023-03-13T08:44:38.590Z,16525
2023-03-13T08:46:07.782Z,16525
2023-03-13T08:47:36.738Z,16486
2023-03-13T08:49:05.194Z,16460
2023-03-13T08:50:33.951Z,16434
2023-03-13T08:52:02.591Z,16434
2023-03-13T08:53:31.473Z,16434
2023-03-13T08:55:00.259Z,16396
2023-03-13T08:56:28.572Z,16434
2023-03-13T08:57:57.130Z,16409
2023-03-13T08:59:25.610Z,16409
2023-03-13T09:00:54.580Z,16396
2023-03-13T09:02:23.181Z,16383
2023-03-13T09:03:51.894Z,16357
2023-03-13T09:05:20.655Z,16319
2023-03-13T09:06:49.532Z,16332
2023-03-13T09:08:18.092Z,16357
2023-03-13T09:09:46.108Z,16294
2023-03-13T09:11:14.761Z,16319
2023-03-13T09:12:43.076Z,16294
2023-03-13T09:14:12.433Z,16281
2023-03-13T09:15:41.164Z,16256
2023-03-13T09:17:09.843Z,16281
2023-03-13T09:18:38.401Z,16243
2023-03-13T09:20:07.706Z,16243
2023-03-13T09:21:36.327Z,16231
2023-03-13T09:23:05.107Z,16193
2023-03-13T09:24:33.420Z,16205
2023-03-13T09:26:03.111Z,16193
2023-03-13T09:27:31.549Z,16168
2023-03-13T09:29:00.227Z,16168
2023-03-13T09:30:30.392Z,16155
2023-03-13T09:31:58.351Z,16155
2023-03-13T09:33:27.378Z,16131
2023-03-13T09:34:55.381Z,16155
2023-03-13T09:36:24.360Z,16106
2023-03-13T09:37:52.650Z,16131
2023-03-13T09:39:21.788Z,16131
2023-03-13T09:41:07.052Z,16118
2023-03-13T09:42:17.998Z,16118
2023-03-13T09:43:46.450Z,16143
2023-03-13T09:45:15.420Z,16131
2023-03-13T09:46:44.431Z,16118
2023-03-13T09:48:12.681Z,16131
2023-03-13T09:49:41.381Z,16131
2023-03-13T09:51:09.479Z,16106
2023-03-13T09:52:40.195Z,16106
2023-03-13T09:54:06.399Z,16093
2023-03-13T09:55:34.418Z,16081
2023-03-13T09:57:02.638Z,16069
2023-03-13T09:58:30.799Z,16069
2023-03-13T09:59:59.666Z,16081
2023-03-13T10:01:28.375Z,16106
2023-03-13T10:02:56.310Z,16056
2023-03-13T10:04:24.566Z,16044
2023-03-13T10:05:52.644Z,16093
2023-03-13T10:07:21.464Z,16032
2023-03-13T10:08:49.841Z,16020
2023-03-13T10:10:17.546Z,16032
2023-03-13T10:11:46.502Z,16007
2023-03-13T10:13:15.436Z,15971
2023-03-13T10:14:44.693Z,16020
2023-03-13T10:16:13.214Z,15983
2023-03-13T10:17:40.955Z,15971
2023-03-13T10:19:09.296Z,15958
2023-03-13T10:20:37.852Z,15934
2023-03-13T10:22:07.223Z,15934
2023-03-13T10:23:35.313Z,15946
2023-03-13T10:25:03.772Z,15934
2023-03-13T10:26:31.817Z,15898
2023-03-13T10:28:00.533Z,15886
2023-03-13T10:29:29.644Z,15862
2023-03-13T10:30:57.876Z,15838
2023-03-13T10:32:26.229Z,15850
2023-03-13T10:33:54.236Z,15838
2023-03-13T10:35:22.514Z,15838
2023-03-13T10:36:51.119Z,15814
2023-03-13T10:38:19.455Z,15814
2023-03-13T10:39:47.549Z,15802
2023-03-13T10:41:16.013Z,15790
2023-03-13T10:42:44.027Z,15802
2023-03-13T10:44:12.768Z,15766
2023-03-13T10:45:41.216Z,15766
2023-03-13T10:47:09.490Z,15778
2023-03-13T10:48:48.762Z,15850
2023-03-13T10:50:17.224Z,15766
2023-03-13T10:51:46.196Z,15766
2023-03-13T10:53:14.573Z,15742
2023-03-13T10:54:43.009Z,15742
2023-03-13T10:56:11.493Z,15719
2023-03-13T10:57:40.375Z,15719
2023-03-13T10:59:08.994Z,15707
2023-03-13T11:00:37.456Z,15707
2023-03-13T11:02:06.086Z,15695
2023-03-13T11:03:16.125Z,15695
2023-03-13T11:04:43.864Z,15684
2023-03-13T11:06:11.848Z,15648
2023-03-13T11:07:40.426Z,15637
2023-03-13T11:09:09.096Z,15625
2023-03-13T11:10:37.987Z,15625
2023-03-13T11:12:05.989Z,15613
2023-03-13T11:13:38.883Z,15590
2023-03-13T11:15:03.023Z,15544
2023-03-13T11:16:31.294Z,15578
2023-03-13T11:18:00.014Z,15578
2023-03-13T11:19:27.853Z,15555
2023-03-13T11:21:18.599Z,15567
2023-03-13T11:22:24.589Z,15567
2023-03-13T11:23:52.566Z,15544
2023-03-13T11:25:21.550Z,15544
2023-03-13T11:27:06.037Z,15532
2023-03-13T11:28:17.995Z,15532
2023-03-13T11:29:46.731Z,15532
2023-03-13T11:31:15.764Z,15544
2023-03-13T11:32:44.594Z,15509
2023-03-13T11:34:12.988Z,15567
2023-03-13T11:35:41.383Z,15498
2023-03-13T11:37:09.539Z,15463
2023-03-13T11:38:37.986Z,15463
2023-03-13T11:40:27.217Z,15625
2023-03-13T11:41:55.864Z,15452
2023-03-13T11:43:26.726Z,15395
2023-03-13T11:44:53.141Z,15361
2023-03-13T11:46:52.479Z,15625
2023-03-13T11:48:20.719Z,15418
2023-03-13T11:49:49.717Z,15328
2023-03-13T11:50:58.157Z,15418
2023-03-13T11:52:26.316Z,15305
2023-03-13T11:53:54.850Z,15294
2023-03-13T11:55:24.119Z,15283
2023-03-13T11:56:52.522Z,15261
2023-03-13T11:58:21.103Z,15261
2023-03-13T11:59:49.584Z,15283
2023-03-13T12:01:18.551Z,15261
2023-03-13T12:02:46.718Z,15249
2023-03-13T12:04:14.950Z,15216
2023-03-13T12:05:43.579Z,15227
2023-03-13T12:07:12.544Z,15205
2023-03-13T12:08:41.663Z,15205
2023-03-13T12:10:09.941Z,15172
2023-03-13T12:11:38.041Z,15161
2023-03-13T12:13:06.360Z,15183
2023-03-13T12:14:35.511Z,15161
2023-03-13T12:16:04.236Z,15150
2023-03-13T12:17:32.620Z,15128
2023-03-13T12:19:00.319Z,15150
2023-03-13T12:20:29.061Z,15117
2023-03-13T12:21:57.821Z,15106
2023-03-13T12:23:26.063Z,15096
2023-03-13T12:24:54.213Z,15117
2023-03-13T12:26:22.701Z,15117
2023-03-13T12:27:51.526Z,15085
2023-03-13T12:29:19.881Z,15117
2023-03-13T12:30:48.286Z,15106
2023-03-13T12:32:15.597Z,15117
2023-03-13T12:33:44.358Z,15106
2023-03-13T12:35:12.766Z,15106
2023-03-13T12:36:41.531Z,15106
2023-03-13T12:38:10.140Z,15096
2023-03-13T12:39:38.303Z,15096
2023-03-13T12:41:06.962Z,15085
2023-03-13T12:42:35.532Z,15117
2023-03-13T12:44:10.212Z,15085
2023-03-13T12:45:33.078Z,15063
2023-03-13T12:47:00.808Z,15063
2023-03-13T12:48:29.963Z,15117
2023-03-13T12:49:57.865Z,15052
2023-03-13T12:51:28.851Z,15052
2023-03-13T12:52:55.339Z,15074
2023-03-13T12:54:23.140Z,15074
2023-03-13T12:55:51.580Z,15031
2023-03-13T12:57:20.048Z,15020
2023-03-13T12:58:48.718Z,14998
2023-03-13T13:00:17.300Z,15020
2023-03-13T13:01:45.140Z,15009
2023-03-13T13:03:13.444Z,15020
2023-03-13T13:04:41.864Z,15041
2023-03-13T13:06:09.959Z,15074
2023-03-13T13:07:38.577Z,15063
2023-03-13T13:09:06.937Z,15096
2023-03-13T13:10:35.082Z,15085
2023-03-13T13:12:04.237Z,15117
2023-03-13T13:13:33.807Z,15117
2023-03-13T13:15:02.244Z,15139
2023-03-13T13:16:30.096Z,15117
2023-03-13T13:17:58.335Z,15150
2023-03-13T13:19:26.961Z,15128
2023-03-13T13:20:55.685Z,15106
2023-03-13T13:22:23.835Z,15096
2023-03-13T13:23:51.948Z,15096
2023-03-13T13:25:19.915Z,15106
2023-03-13T13:26:48.742Z,15085
2023-03-13T13:28:17.646Z,15150
2023-03-13T13:29:46.564Z,15117
2023-03-13T13:31:15.495Z,15117
2023-03-13T13:32:43.512Z,15074
2023-03-13T13:34:11.746Z,15085
2023-03-13T13:35:40.806Z,15074
2023-03-13T13:37:08.938Z,15074
2023-03-13T13:38:37.594Z,15074
2023-03-13T13:40:05.968Z,15031
2023-03-13T13:41:34.323Z,15020
2023-03-13T13:43:02.916Z,15031
2023-03-13T13:44:31.278Z,15041
2023-03-13T13:45:59.590Z,15031
2023-03-13T13:47:28.089Z,14998
2023-03-13T13:48:56.529Z,15041
2023-03-13T13:50:25.461Z,15041
2023-03-13T13:51:53.742Z,15031
2023-03-13T13:53:52.640Z,15361
2023-03-13T13:55:20.685Z,15150
2023-03-13T13:56:49.378Z,15407
2023-03-13T13:58:17.842Z,15150
2023-03-13T13:59:46.778Z,15150
2023-03-13T14:01:15.266Z,15172
2023-03-13T14:02:43.231Z,15205
2023-03-13T14:04:11.669Z,15216
2023-03-13T14:05:40.001Z,15183
2023-03-13T14:07:08.996Z,15216
2023-03-13T14:08:37.241Z,15216
2023-03-13T14:10:05.257Z,15261
2023-03-13T14:11:33.841Z,15283
2023-03-13T14:13:02.188Z,15294
2023-03-13T14:14:30.933Z,15283
2023-03-13T14:15:59.514Z,15294
2023-03-13T14:17:27.577Z,15283
2023-03-13T14:18:56.208Z,15294
2023-03-13T14:20:24.346Z,15316
2023-03-13T14:21:53.258Z,15305
2023-03-13T14:23:21.407Z,15305
2023-03-13T14:24:49.607Z,15328
2023-03-13T14:26:18.425Z,15339
2023-03-13T14:27:46.618Z,15350
2023-03-13T14:29:15.590Z,15328
2023-03-13T14:30:44.061Z,15350
2023-03-13T14:32:12.159Z,15339
2023-03-13T14:33:40.948Z,15339
2023-03-13T14:34:50.847Z,15395
2023-03-13T14:36:30.081Z,15475
2023-03-13T14:37:58.214Z,15395
2023-03-13T14:39:36.850Z,15509
2023-03-13T14:41:04.968Z,15395
2023-03-13T14:42:34.161Z,15373
2023-03-13T14:44:02.436Z,15361
2023-03-13T14:45:30.534Z,15305
2023-03-13T14:46:59.360Z,15339
2023-03-13T14:48:28.174Z,15305
2023-03-13T14:49:57.741Z,15373
2023-03-13T14:51:26.076Z,15395
2023-03-13T14:52:54.886Z,15361
2023-03-13T14:54:23.399Z,15429
2023-03-13T14:55:52.898Z,15373
2023-03-13T14:57:21.605Z,15361
2023-03-13T14:58:49.740Z,15339
2023-03-13T15:00:18.125Z,15328
2023-03-13T15:01:47.336Z,15328
2023-03-13T15:03:15.413Z,15339
2023-03-13T15:04:44.266Z,15283
2023-03-13T15:06:12.639Z,15272
2023-03-13T15:07:41.265Z,15249
2023-03-13T15:09:10.799Z,15249
2023-03-13T15:10:39.209Z,15261
2023-03-13T15:12:07.292Z,15205
2023-03-13T15:13:36.241Z,15194
2023-03-13T15:15:05.062Z,15172
2023-03-13T15:16:33.579Z,15161
2023-03-13T15:18:01.471Z,15117
2023-03-13T15:19:30.066Z,15085
2023-03-13T15:20:58.507Z,15096
2023-03-13T15:22:27.704Z,15085
2023-03-13T15:23:56.374Z,15052
2023-03-13T15:25:24.509Z,15106
2023-03-13T15:26:52.864Z,15063
2023-03-13T15:28:21.478Z,15031
2023-03-13T15:29:50.593Z,15041
2023-03-13T15:31:19.212Z,14987
2023-03-13T15:32:47.325Z,14998
2023-03-13T15:34:17.677Z,15009
2023-03-13T15:35:44.732Z,15041
2023-03-13T15:37:13.483Z,15052
2023-03-13T15:38:41.814Z,15096
2023-03-13T15:40:09.372Z,15085
2023-03-13T15:41:37.846Z,15117
2023-03-13T15:43:06.674Z,15150
2023-03-13T15:44:35.642Z,15161
2023-03-13T15:46:06.876Z,15205
2023-03-13T15:47:32.025Z,15249
2023-03-13T15:49:00.611Z,15261
2023-03-13T15:50:29.528Z,15316
2023-03-13T15:51:58.642Z,15294
2023-03-13T15:53:26.688Z,15294
2023-03-13T15:54:54.445Z,15305
2023-03-13T15:56:22.865Z,15305
2023-03-13T15:57:51.672Z,15328
2023-03-13T15:59:23.115Z,15294
2023-03-13T16:00:50.044Z,15294
2023-03-13T16:02:18.396Z,15305
2023-03-13T16:03:47.881Z,15328
2023-03-13T16:05:16.145Z,15328
2023-03-13T16:06:44.963Z,15339
2023-03-13T16:08:37.511Z,15350
2023-03-13T16:09:51.594Z,15395
2023-03-13T16:11:20.225Z,15350
2023-03-13T16:12:49.138Z,15373
2023-03-13T16:14:17.476Z,15373
2023-03-13T16:15:45.315Z,15339
2023-03-13T16:17:14.147Z,15339
2023-03-13T16:18:42.936Z,15339
2023-03-13T16:20:11.903Z,15339
2023-03-13T16:21:40.264Z,15294
2023-03-13T16:23:08.384Z,15283
2023-03-13T16:24:36.690Z,15305
2023-03-13T16:26:05.275Z,15567
2023-03-13T16:27:34.130Z,15305
2023-03-13T16:29:02.744Z,15328
2023-03-13T16:30:30.367Z,15328
2023-03-13T16:31:58.695Z,15316
2023-03-13T16:33:26.986Z,15328
2023-03-13T16:34:55.895Z,15384
2023-03-13T16:36:24.689Z,15384
2023-03-13T16:37:52.935Z,15418
2023-03-13T16:39:20.964Z,15418
2023-03-13T16:40:49.470Z,15384
2023-03-13T16:42:17.784Z,15418
2023-03-13T16:43:46.465Z,15418
2023-03-13T16:45:15.014Z,15429
2023-03-13T16:47:06.914Z,15452
2023-03-13T16:48:11.546Z,15486
2023-03-13T16:49:39.585Z,15429
2023-03-13T16:51:08.706Z,15452
2023-03-13T16:52:37.249Z,15463
2023-03-13T16:54:05.206Z,15475
2023-03-13T16:55:33.635Z,15452
2023-03-13T16:57:02.334Z,15475
2023-03-13T16:58:31.180Z,15509
2023-03-13T16:59:59.446Z,15498
2023-03-13T17:01:27.946Z,15498
2023-03-13T17:02:56.756Z,15544
2023-03-13T17:04:25.971Z,15532
2023-03-13T17:05:53.906Z,15544
2023-03-13T17:07:21.854Z,15555
2023-03-13T17:08:31.154Z,15707
2023-03-13T17:10:00.237Z,15648
2023-03-13T17:11:28.496Z,15555
2023-03-13T17:12:57.028Z,15567
2023-03-13T17:14:25.732Z,15555
2023-03-13T17:15:54.866Z,15521
2023-03-13T17:17:22.902Z,15509
2023-03-13T17:18:51.285Z,15521
2023-03-13T17:20:19.851Z,15521
2023-03-13T17:21:48.632Z,15521
2023-03-13T17:23:17.568Z,15521
2023-03-13T17:24:45.977Z,15521
2023-03-13T17:26:13.809Z,15498
2023-03-13T17:27:42.505Z,15486
2023-03-13T17:28:52.223Z,15578
2023-03-13T17:30:21.415Z,15486
2023-03-13T17:31:49.652Z,15475
2023-03-13T17:33:17.851Z,15475
2023-03-13T17:34:46.578Z,15475
2023-03-13T17:36:16.098Z,15441
2023-03-13T17:37:44.113Z,15441
2023-03-13T17:39:12.209Z,15441
2023-03-13T17:40:50.824Z,15555
2023-03-13T17:42:19.088Z,15463
2023-03-13T17:43:48.005Z,15429
2023-03-13T17:45:16.241Z,15452
2023-03-13T17:46:44.462Z,15441
2023-03-13T17:48:12.785Z,15429
2023-03-13T17:49:41.250Z,15429
2023-03-13T17:51:10.941Z,15441
2023-03-13T17:52:39.202Z,15429
2023-03-13T17:54:07.442Z,15441
2023-03-13T17:55:36.273Z,15463
2023-03-13T17:57:04.894Z,15429
2023-03-13T17:58:32.902Z,15429
2023-03-13T18:00:01.645Z,15407
2023-03-13T18:01:30.652Z,15441
2023-03-13T18:02:58.923Z,15395
2023-03-13T18:04:27.647Z,15384
2023-03-13T18:05:56.406Z,15407
2023-03-13T18:07:24.469Z,15373
2023-03-13T18:08:53.215Z,15361
2023-03-13T18:10:21.838Z,15339
2023-03-13T18:11:50.393Z,15350
2023-03-13T18:13:19.041Z,15294
2023-03-13T18:14:46.981Z,15316
2023-03-13T18:16:15.845Z,15283
2023-03-13T18:17:44.761Z,15272
2023-03-13T18:19:13.890Z,15238
2023-03-13T18:20:42.044Z,15205
2023-03-13T18:22:10.813Z,15205
2023-03-13T18:23:39.658Z,15161
2023-03-13T18:25:08.796Z,15172
2023-03-13T18:26:37.137Z,15194
2023-03-13T18:28:05.094Z,15128
2023-03-13T18:29:33.622Z,15117
2023-03-13T18:31:02.255Z,15096
2023-03-13T18:32:31.800Z,15074
2023-03-13T18:33:59.323Z,15063
2023-03-13T18:35:28.388Z,15074
2023-03-13T18:36:56.365Z,15041
2023-03-13T18:38:25.586Z,15063
2023-03-13T18:39:54.067Z,15031
2023-03-13T18:41:40.566Z,15139
2023-03-13T18:43:16.391Z,15052
2023-03-13T18:44:32.887Z,15031
2023-03-13T18:46:01.301Z,15009
2023-03-13T18:47:28.905Z,14977
2023-03-13T18:48:57.728Z,14977
2023-03-13T18:50:26.110Z,14934
2023-03-13T18:51:55.486Z,14923
2023-03-13T18:53:27.526Z,14966
2023-03-13T18:54:52.249Z,14945
2023-03-13T18:56:22.166Z,14923
2023-03-13T18:57:50.569Z,14849
2023-03-13T18:59:18.845Z,14849